createdAt,value
2018-04-29T00:02:22.579Z,12.50
2018-04-29T00:04:51.044Z,13.13
2018-04-29T00:07:19.404Z,10.70
2018-04-29T00:09:47.819Z,14.87
2018-04-29T00:12:16.188Z,14.07
2018-04-29T00:14:44.538Z,12.57
2018-04-29T00:17:12.927Z,10.30
2018-04-29T00:19:41.291Z,15.10
2018-04-29T00:22:09.653Z,12.70
2018-04-29T00:24:38.012Z,14.03
2018-04-29T00:27:07.122Z,13.20
2018-04-29T00:29:35.464Z,13.40
2018-04-29T00:32:03.857Z,16.47
2018-04-29T00:34:32.962Z,14.33
2018-04-29T00:37:01.330Z,16.10
2018-04-29T00:39:30.477Z,12.33
2018-04-29T00:41:58.798Z,13.00
2018-04-29T00:44:27.988Z,14.03
2018-04-29T00:46:57.107Z,15.67
2018-04-29T00:49:25.447Z,14.50
2018-04-29T00:52:05.684Z,13.40
2018-04-29T00:54:34.058Z,11.37
2018-04-29T00:57:02.414Z,15.30
2018-04-29T00:59:30.761Z,12.43
2018-04-29T01:01:59.893Z,11.90
2018-04-29T01:04:28.241Z,14.10
2018-04-29T01:06:57.059Z,14.03
2018-04-29T01:09:25.413Z,14.87
2018-04-29T01:11:53.769Z,13.93
2018-04-29T01:14:22.903Z,13.10
2018-04-29T01:16:52.041Z,13.43
2018-04-29T01:19:20.415Z,14.27
2018-04-29T01:21:48.742Z,12.90
2018-04-29T01:24:17.185Z,14.27
2018-04-29T01:26:45.511Z,13.33
2018-04-29T01:29:13.856Z,12.20
2018-04-29T01:31:42.973Z,17.03
2018-04-29T01:34:11.346Z,13.67
2018-04-29T01:36:39.709Z,15.30
2018-04-29T01:39:08.070Z,17.80
2018-04-29T01:41:37.206Z,16.53
2018-04-29T01:44:06.362Z,14.47
2018-04-29T01:46:34.691Z,13.63
2018-04-29T01:49:03.043Z,16.43
2018-04-29T01:51:31.410Z,14.47
2018-04-29T01:54:00.536Z,20.17
2018-04-29T01:56:28.881Z,15.90
2018-04-29T01:58:58.011Z,15.53
2018-04-29T02:01:27.145Z,15.30
2018-04-29T02:03:55.494Z,16.57
2018-04-29T02:06:23.896Z,18.60
2018-04-29T02:08:52.265Z,16.17
2018-04-29T02:11:20.624Z,14.60
2018-04-29T02:13:48.993Z,21.03
2018-04-29T02:16:17.347Z,16.20
2018-04-29T02:18:45.699Z,18.23
2018-04-29T02:21:14.823Z,17.50
2018-04-29T02:23:43.177Z,20.90
2018-04-29T02:26:12.336Z,17.07
2018-04-29T02:28:40.720Z,18.93
2018-04-29T02:31:09.050Z,18.57
2018-04-29T02:33:37.425Z,17.87
2018-04-29T02:36:05.811Z,17.63
2018-04-29T02:38:34.135Z,17.57
2018-04-29T02:41:02.532Z,15.70
2018-04-29T02:43:31.658Z,19.67
2018-04-29T02:46:00.000Z,16.20
2018-04-29T02:48:29.141Z,18.70
2018-04-29T02:50:57.503Z,17.80
2018-04-29T02:53:25.871Z,15.17
2018-04-29T02:55:54.986Z,21.43
2018-04-29T02:58:23.359Z,20.83
2018-04-29T03:00:51.687Z,17.40
2018-04-29T03:03:20.437Z,20.30
2018-04-29T03:05:49.558Z,19.17
2018-04-29T03:08:17.888Z,17.53
2018-04-29T03:10:46.262Z,19.03
2018-04-29T03:13:14.611Z,17.40
2018-04-29T03:15:42.988Z,20.10
2018-04-29T03:18:11.346Z,17.33
2018-04-29T03:20:39.718Z,19.37
2018-04-29T03:23:08.082Z,18.53
2018-04-29T03:25:36.466Z,16.47
2018-04-29T03:28:04.822Z,19.10
2018-04-29T03:30:33.288Z,21.50
2018-04-29T03:33:01.646Z,20.83
2018-04-29T03:35:30.766Z,19.70
2018-04-29T03:37:59.136Z,20.20
2018-04-29T03:40:28.251Z,21.23
2018-04-29T03:42:56.708Z,20.70
2018-04-29T03:45:25.814Z,18.60
2018-04-29T03:47:54.163Z,19.73
2018-04-29T03:50:23.699Z,20.80
2018-04-29T03:52:52.025Z,18.90
2018-04-29T03:55:20.370Z,17.93
2018-04-29T03:58:00.484Z,17.37
2018-04-29T04:00:52.964Z,18.43
2018-04-29T04:03:33.497Z,18.17
2018-04-29T04:06:02.621Z,19.17
2018-04-29T04:08:31.743Z,17.97
2018-04-29T04:11:00.067Z,19.40
2018-04-29T04:13:28.988Z,19.63
2018-04-29T04:15:58.934Z,19.37
2018-04-29T04:18:28.153Z,20.57
2018-04-29T04:20:56.516Z,18.27
2018-04-29T04:23:26.590Z,18.03
2018-04-29T04:25:54.963Z,21.23
2018-04-29T04:28:25.452Z,18.83
2018-04-29T04:30:55.227Z,19.00
2018-04-29T04:33:24.177Z,20.87
2018-04-29T04:35:54.438Z,17.60
2018-04-29T04:38:22.918Z,18.13
2018-04-29T04:40:51.239Z,20.73
2018-04-29T04:43:20.374Z,18.87
2018-04-29T04:45:48.729Z,20.87
2018-04-29T04:48:17.398Z,24.60
2018-04-29T04:50:46.599Z,21.83
2018-04-29T04:53:14.886Z,21.53
2018-04-29T04:55:43.263Z,19.10
2018-04-29T04:58:11.690Z,18.33
2018-04-29T05:00:40.779Z,18.37
2018-04-29T05:03:09.123Z,17.53
2018-04-29T05:05:39.454Z,18.77
2018-04-29T05:08:08.585Z,20.23
2018-04-29T05:10:37.091Z,16.07
2018-04-29T05:13:05.406Z,16.53
2018-04-29T05:15:33.744Z,15.20
2018-04-29T05:18:02.087Z,17.33
2018-04-29T05:20:30.435Z,17.87
2018-04-29T05:22:58.788Z,16.53
2018-04-29T05:25:27.148Z,14.63
2018-04-29T05:27:55.577Z,16.23
2018-04-29T05:30:23.940Z,18.77
2018-04-29T05:32:52.300Z,16.17
2018-04-29T05:35:21.615Z,17.63
2018-04-29T05:37:50.314Z,17.43
2018-04-29T05:40:18.727Z,17.50
2018-04-29T05:42:48.701Z,18.20
2018-04-29T05:45:17.168Z,15.70
2018-04-29T05:47:45.560Z,14.50
2018-04-29T05:50:13.894Z,16.17
2018-04-29T05:52:42.269Z,16.90
2018-04-29T05:55:10.638Z,15.50
2018-04-29T05:57:38.987Z,16.77
2018-04-29T06:00:08.108Z,13.83
2018-04-29T06:02:36.486Z,13.93
2018-04-29T06:05:04.842Z,14.50
2018-04-29T06:07:33.201Z,17.03
2018-04-29T06:10:01.562Z,13.70
2018-04-29T06:12:30.357Z,17.53
2018-04-29T06:14:58.704Z,16.63
2018-04-29T06:17:27.053Z,18.33
2018-04-29T06:19:55.432Z,15.93
2018-04-29T06:22:23.769Z,15.97
2018-04-29T06:24:52.157Z,16.73
2018-04-29T06:27:20.492Z,15.37
2018-04-29T06:29:48.885Z,16.10
2018-04-29T06:32:17.974Z,15.93
2018-04-29T06:34:47.087Z,14.57
2018-04-29T06:37:15.467Z,15.47
2018-04-29T06:39:43.840Z,11.73
2018-04-29T06:42:12.319Z,12.07
2018-04-29T06:44:40.652Z,18.70
2018-04-29T06:47:09.013Z,16.60
2018-04-29T06:49:37.376Z,16.20
2018-04-29T06:52:05.726Z,13.50
2018-04-29T06:54:34.854Z,13.93
2018-04-29T06:57:03.199Z,16.07
2018-04-29T06:59:31.579Z,14.27
2018-04-29T07:01:59.978Z,14.83
2018-04-29T07:04:28.332Z,14.50
2018-04-29T07:06:56.670Z,11.90
2018-04-29T07:09:25.042Z,12.27
2018-04-29T07:11:53.408Z,11.50
2018-04-29T07:14:21.774Z,11.60
2018-04-29T07:16:50.174Z,11.17
2018-04-29T07:19:18.629Z,11.53
2018-04-29T07:21:47.081Z,10.33
2018-04-29T07:24:16.719Z,10.33
2018-04-29T07:26:45.154Z,12.20
2018-04-29T07:29:14.406Z,10.73
2018-04-29T07:31:42.811Z,8.63
2018-04-29T07:34:11.241Z,10.57
2018-04-29T07:36:40.311Z,11.83
2018-04-29T07:39:09.555Z,9.80
2018-04-29T07:41:38.014Z,9.37
2018-04-29T07:44:06.530Z,9.97
2018-04-29T07:46:34.967Z,9.90
2018-04-29T07:49:03.730Z,12.20
2018-04-29T07:51:32.248Z,8.43
2018-04-29T07:54:00.789Z,12.07
2018-04-29T07:56:29.899Z,7.10
2018-04-29T07:58:59.025Z,9.77
2018-04-29T08:01:31.055Z,11.60
2018-04-29T08:04:00.184Z,8.47
2018-04-29T08:06:30.200Z,10.57
2018-04-29T08:08:58.573Z,7.90
2018-04-29T08:11:26.917Z,8.17
2018-04-29T08:13:56.140Z,9.47
2018-04-29T08:16:24.483Z,13.07
2018-04-29T08:18:52.818Z,10.80
2018-04-29T08:21:21.198Z,7.60
2018-04-29T08:23:49.564Z,8.07
2018-04-29T08:26:17.914Z,8.43
2018-04-29T08:28:46.400Z,10.00
2018-04-29T08:31:14.740Z,12.27
2018-04-29T08:33:43.062Z,8.87
2018-04-29T08:36:11.492Z,13.43
2018-04-29T08:38:39.766Z,8.47
2018-04-29T08:41:08.140Z,12.07
2018-04-29T08:43:36.476Z,9.70
2018-04-29T08:46:04.864Z,9.63
2018-04-29T08:48:34.977Z,7.67
2018-04-29T08:51:03.629Z,8.17
2018-04-29T08:53:32.716Z,12.10
2018-04-29T08:56:03.074Z,11.20
2018-04-29T08:58:31.609Z,7.70
2018-04-29T09:00:59.971Z,10.23
2018-04-29T09:03:28.314Z,7.97
2018-04-29T09:05:56.691Z,11.37
2018-04-29T09:08:25.030Z,9.47
2018-04-29T09:10:55.242Z,11.00
2018-04-29T09:13:23.587Z,7.70
2018-04-29T09:15:55.022Z,7.43
2018-04-29T09:18:23.377Z,11.07
2018-04-29T09:20:51.717Z,9.00
2018-04-29T09:23:20.078Z,11.43
2018-04-29T09:25:48.447Z,8.47
2018-04-29T09:28:16.817Z,6.57
2018-04-29T09:30:45.183Z,7.87
2018-04-29T09:33:14.776Z,6.53
2018-04-29T09:35:43.128Z,6.70
2018-04-29T09:38:13.659Z,8.43
2018-04-29T09:40:42.814Z,6.77
2018-04-29T09:43:11.154Z,8.03
2018-04-29T09:45:39.520Z,5.93
2018-04-29T09:48:08.639Z,7.47
2018-04-29T09:50:37.082Z,7.93
2018-04-29T09:53:06.181Z,8.43
2018-04-29T09:55:35.308Z,7.57
2018-04-29T09:58:03.821Z,10.33
2018-04-29T10:00:32.193Z,7.33
2018-04-29T10:03:06.272Z,8.00
2018-04-29T10:05:35.389Z,7.10
2018-04-29T10:08:03.827Z,9.93
2018-04-29T10:10:32.301Z,7.47
2018-04-29T10:13:01.478Z,8.90
2018-04-29T10:15:30.579Z,7.03
2018-04-29T10:17:59.027Z,7.77
2018-04-29T10:20:27.383Z,10.53
2018-04-29T10:22:55.931Z,7.83
2018-04-29T10:25:24.475Z,7.63
2018-04-29T10:27:52.819Z,7.20
2018-04-29T10:30:21.219Z,7.83
2018-04-29T10:32:49.607Z,6.70
2018-04-29T10:35:17.949Z,8.40
2018-04-29T10:37:46.285Z,6.83
2018-04-29T10:40:14.661Z,7.37
2018-04-29T10:42:43.014Z,6.80
2018-04-29T10:45:11.776Z,8.83
2018-04-29T10:47:40.100Z,9.13
2018-04-29T10:50:08.472Z,5.70
2018-04-29T10:52:36.820Z,5.73
2018-04-29T10:55:05.224Z,5.13
2018-04-29T10:57:33.969Z,6.63
2018-04-29T11:00:02.331Z,6.80
2018-04-29T11:02:30.698Z,5.90
2018-04-29T11:04:59.859Z,7.40
2018-04-29T11:07:28.254Z,4.97
2018-04-29T11:09:56.626Z,6.67
2018-04-29T11:12:24.967Z,8.63
2018-04-29T11:14:53.360Z,5.73
2018-04-29T11:17:21.695Z,8.20
2018-04-29T11:19:50.074Z,6.17
2018-04-29T11:22:18.445Z,6.83
2018-04-29T11:24:47.527Z,6.17
2018-04-29T11:27:16.737Z,7.03
2018-04-29T11:29:45.191Z,6.93
2018-04-29T11:32:13.511Z,7.03
2018-04-29T11:34:49.232Z,8.47
2018-04-29T11:37:24.120Z,7.90
2018-04-29T11:39:52.832Z,6.90
2018-04-29T11:42:21.329Z,6.77
2018-04-29T11:44:50.440Z,8.30
2018-04-29T11:47:18.807Z,10.20
2018-04-29T11:49:47.917Z,7.90
2018-04-29T11:52:16.319Z,6.40
2018-04-29T11:54:45.399Z,7.47
2018-04-29T11:57:13.996Z,8.87
2018-04-29T11:59:42.643Z,6.67
2018-04-29T12:02:11.011Z,6.77
2018-04-29T12:04:40.129Z,5.40
2018-04-29T12:07:08.549Z,8.97
2018-04-29T12:09:36.930Z,6.60
2018-04-29T12:12:05.265Z,5.30
2018-04-29T12:14:33.997Z,7.33
2018-04-29T12:17:03.317Z,5.13
2018-04-29T12:19:32.004Z,5.57
2018-04-29T12:22:00.349Z,6.33
2018-04-29T12:24:28.765Z,4.53
2018-04-29T12:26:58.947Z,5.13
2018-04-29T12:29:27.831Z,7.40
2018-04-29T12:31:56.345Z,8.97
2018-04-29T12:34:26.684Z,5.20
2018-04-29T12:36:55.802Z,7.57
2018-04-29T12:39:24.414Z,6.93
2018-04-29T12:41:52.760Z,7.13
2018-04-29T12:44:21.395Z,7.90
2018-04-29T12:46:49.781Z,7.00
2018-04-29T12:49:18.238Z,7.37
2018-04-29T12:51:47.028Z,7.47
2018-04-29T12:54:15.424Z,6.40
2018-04-29T12:56:43.784Z,7.33
2018-04-29T12:59:12.168Z,6.00
2018-04-29T13:01:42.293Z,9.67
2018-04-29T13:04:13.948Z,6.53
2018-04-29T13:06:42.389Z,6.57
2018-04-29T13:09:10.750Z,6.53
2018-04-29T13:11:39.086Z,6.93
2018-04-29T13:14:07.445Z,7.00
2018-04-29T13:16:35.820Z,4.83
2018-04-29T13:19:04.835Z,5.20
2018-04-29T13:21:33.225Z,5.60
2018-04-29T13:24:02.079Z,2.97
2018-04-29T13:26:30.408Z,6.17
2018-04-29T13:28:59.497Z,3.33
2018-04-29T13:31:28.612Z,5.00
2018-04-29T13:33:56.949Z,5.87
2018-04-29T13:36:25.310Z,6.87
2018-04-29T13:38:53.645Z,4.13
2018-04-29T13:41:22.096Z,5.53
2018-04-29T13:43:51.183Z,6.87
2018-04-29T13:46:19.498Z,4.17
2018-04-29T13:48:47.861Z,5.60
2018-04-29T13:51:16.961Z,5.77
2018-04-29T13:53:45.413Z,4.77
2018-04-29T13:56:13.751Z,5.67
2018-04-29T13:58:42.139Z,7.50
2018-04-29T14:01:10.477Z,4.57
2018-04-29T14:03:38.891Z,6.60
2018-04-29T14:06:07.255Z,4.97
2018-04-29T14:08:36.036Z,6.23
2018-04-29T14:11:04.361Z,5.70
2018-04-29T14:13:32.706Z,7.40
2018-04-29T14:16:01.129Z,5.23
2018-04-29T14:18:29.482Z,3.40
2018-04-29T14:20:57.825Z,12.67
2018-04-29T14:23:26.161Z,4.97
2018-04-29T14:25:55.266Z,5.70
2018-04-29T14:28:24.370Z,6.30
2018-04-29T14:30:52.720Z,6.93
2018-04-29T14:33:21.049Z,5.07
2018-04-29T14:35:49.550Z,6.33
2018-04-29T14:38:17.890Z,6.17
2018-04-29T14:40:46.276Z,5.93
2018-04-29T14:43:14.704Z,6.20
2018-04-29T14:45:49.606Z,5.70
2018-04-29T14:48:25.803Z,5.87
2018-04-29T14:51:01.153Z,2.93
2018-04-29T14:53:29.598Z,2.70
2018-04-29T14:55:57.934Z,4.33
2018-04-29T14:58:26.277Z,5.40
2018-04-29T15:00:54.636Z,5.67
2018-04-29T15:03:23.034Z,6.53
2018-04-29T15:05:51.373Z,4.43
2018-04-29T15:08:19.713Z,3.70
2018-04-29T15:10:48.829Z,2.93
2018-04-29T15:13:17.154Z,6.73
2018-04-29T15:15:45.484Z,3.03
2018-04-29T15:18:25.570Z,5.03
2018-04-29T15:20:54.354Z,5.77
2018-04-29T15:23:22.706Z,4.00
2018-04-29T15:25:51.813Z,4.23
2018-04-29T15:28:20.151Z,3.87
2018-04-29T15:30:49.274Z,4.63
2018-04-29T15:33:19.026Z,3.63
2018-04-29T15:35:48.347Z,6.30
2018-04-29T15:38:20.797Z,4.27
2018-04-29T15:40:55.231Z,3.03
2018-04-29T15:43:24.392Z,3.17
2018-04-29T15:45:55.079Z,3.30
2018-04-29T15:48:24.703Z,3.30
2018-04-29T15:50:59.150Z,3.33
2018-04-29T15:53:32.606Z,2.77
2018-04-29T15:56:06.581Z,3.90
2018-04-29T15:58:35.735Z,3.30
2018-04-29T16:01:04.837Z,5.20
2018-04-29T16:03:33.239Z,4.30
2018-04-29T16:06:01.553Z,3.77
2018-04-29T16:08:31.290Z,5.07
2018-04-29T16:10:59.622Z,5.40
2018-04-29T16:13:28.030Z,4.40
2018-04-29T16:15:56.447Z,4.70
2018-04-29T16:18:24.776Z,4.80
2018-04-29T16:20:53.873Z,4.07
2018-04-29T16:23:22.971Z,5.13
2018-04-29T16:25:51.355Z,5.53
2018-04-29T16:28:19.834Z,5.00
2018-04-29T16:30:48.169Z,4.33
2018-04-29T16:33:19.433Z,5.40
2018-04-29T16:38:32.498Z,3.77
2018-04-29T16:43:54.791Z,3.10
2018-04-29T16:46:27.279Z,3.37
2018-04-29T16:48:58.986Z,4.80
2018-04-29T16:51:28.905Z,3.23
2018-04-29T16:54:00.980Z,4.80
2018-04-29T16:56:32.707Z,3.50
2018-04-29T16:59:03.397Z,3.47
2018-04-29T17:01:39.451Z,3.67
2018-04-29T17:04:11.543Z,5.20
2018-04-29T17:06:50.686Z,3.57
2018-04-29T17:09:21.771Z,11.00
2018-04-29T17:12:21.817Z,4.70
2018-04-29T17:15:03.194Z,3.80
2018-04-29T17:17:36.951Z,3.80
2018-04-29T17:20:17.076Z,4.90
2018-04-29T17:22:55.260Z,3.20
2018-04-29T17:25:28.057Z,4.33
2018-04-29T17:28:01.176Z,4.40
2018-04-29T17:30:31.865Z,2.87
2018-04-29T17:33:07.217Z,4.50
2018-04-29T17:35:38.689Z,6.37
2018-04-29T17:38:12.395Z,6.97
2018-04-29T17:40:47.401Z,5.43
2018-04-29T17:43:27.767Z,4.77
2018-04-29T17:45:57.956Z,5.30
2018-04-29T17:48:27.911Z,3.90
2018-04-29T17:50:59.192Z,6.97
2018-04-29T17:53:28.064Z,4.57
2018-04-29T17:55:56.915Z,6.97
2018-04-29T17:58:26.115Z,6.60
2018-04-29T18:00:55.291Z,8.60
2018-04-29T18:03:24.408Z,4.47
2018-04-29T18:05:53.625Z,6.53
2018-04-29T18:08:22.269Z,6.07
2018-04-29T18:10:54.160Z,4.77
2018-04-29T18:13:26.374Z,5.57
2018-04-29T18:15:57.442Z,5.13
2018-04-29T18:18:34.716Z,6.37
2018-04-29T18:21:19.680Z,5.57
2018-04-29T18:23:49.703Z,7.13
2018-04-29T18:26:18.045Z,7.30
2018-04-29T18:28:47.135Z,6.03
2018-04-29T18:31:16.266Z,7.23
2018-04-29T18:33:44.587Z,5.70
2018-04-29T18:36:13.017Z,8.27
2018-04-29T18:38:41.353Z,6.33
2018-04-29T18:41:10.460Z,6.60
2018-04-29T18:43:39.590Z,6.87
2018-04-29T18:46:08.684Z,6.30
2018-04-29T18:48:37.895Z,5.83
2018-04-29T18:51:06.321Z,6.30
2018-04-29T18:53:34.669Z,6.67
2018-04-29T18:56:03.043Z,5.60
2018-04-29T18:58:31.387Z,5.23
2018-04-29T19:00:59.735Z,8.93
2018-04-29T19:03:29.360Z,7.47
2018-04-29T19:05:59.681Z,10.13
2018-04-29T19:08:28.040Z,7.43
2018-04-29T19:10:57.277Z,7.33
2018-04-29T19:13:25.613Z,5.70
2018-04-29T19:15:54.848Z,6.90
2018-04-29T19:18:23.184Z,6.03
2018-04-29T19:20:52.266Z,7.67
2018-04-29T19:23:20.626Z,5.43
2018-04-29T19:25:48.976Z,5.73
2018-04-29T19:28:17.444Z,9.60
2018-04-29T19:30:45.784Z,9.50
2018-04-29T19:33:14.977Z,8.93
2018-04-29T19:35:43.328Z,12.00
2018-04-29T19:38:11.647Z,7.10
2018-04-29T19:40:40.761Z,10.07
2018-04-29T19:43:09.088Z,7.67
2018-04-29T19:45:37.450Z,10.00
2018-04-29T19:48:05.823Z,10.50
2018-04-29T19:50:34.166Z,8.97
2018-04-29T19:53:02.563Z,11.23
2018-04-29T19:55:30.890Z,9.57
2018-04-29T19:57:59.220Z,10.53
2018-04-29T20:00:29.899Z,9.07
2018-04-29T20:02:59.567Z,7.87
2018-04-29T20:05:28.284Z,9.43
2018-04-29T20:07:56.620Z,11.30
2018-04-29T20:10:25.005Z,11.17
2018-04-29T20:12:53.364Z,12.13
2018-04-29T20:15:22.132Z,15.10
2018-04-29T20:17:53.652Z,11.03
2018-04-29T20:20:21.992Z,11.70
2018-04-29T20:22:50.309Z,10.73
2018-04-29T20:25:18.792Z,9.90
2018-04-29T20:27:47.095Z,12.40
2018-04-29T20:30:16.224Z,10.47
2018-04-29T20:32:48.575Z,12.00
2018-04-29T20:35:18.847Z,11.33
2018-04-29T20:37:50.046Z,10.17
2018-04-29T20:40:18.712Z,11.00
2018-04-29T20:42:48.235Z,10.57
2018-04-29T20:45:16.689Z,12.00
2018-04-29T20:47:45.065Z,15.07
2018-04-29T20:50:14.205Z,11.90
2018-04-29T20:52:42.545Z,9.47
2018-04-29T20:55:11.740Z,11.23
2018-04-29T20:57:42.496Z,9.73
2018-04-29T21:00:10.864Z,11.17
2018-04-29T21:02:39.220Z,12.00
2018-04-29T21:05:10.858Z,12.50
2018-04-29T21:07:39.642Z,10.07
2018-04-29T21:10:07.993Z,12.37
2018-04-29T21:12:36.351Z,12.77
2018-04-29T21:15:05.467Z,10.50
2018-04-29T21:17:35.402Z,11.83
2018-04-29T21:20:04.108Z,10.77
2018-04-29T21:22:34.002Z,10.73
2018-04-29T21:25:02.372Z,8.53
2018-04-29T21:27:31.715Z,14.03
2018-04-29T21:30:00.839Z,10.47
2018-04-29T21:32:29.976Z,12.57
2018-04-29T21:34:58.316Z,10.73
2018-04-29T21:37:26.712Z,10.73
2018-04-29T21:39:55.047Z,9.97
2018-04-29T21:42:25.140Z,9.67
2018-04-29T21:44:54.681Z,10.17
2018-04-29T21:47:23.022Z,11.03
2018-04-29T21:49:53.006Z,10.97
2018-04-29T21:52:21.322Z,12.77
2018-04-29T21:54:50.398Z,10.13
2018-04-29T21:57:18.803Z,13.20
2018-04-29T21:59:47.904Z,10.63
2018-04-29T22:02:16.216Z,10.70
2018-04-29T22:04:44.623Z,11.47
2018-04-29T22:07:15.509Z,10.43
2018-04-29T22:09:43.972Z,8.37
2018-04-29T22:12:13.856Z,9.80
2018-04-29T22:14:42.242Z,10.73
2018-04-29T22:17:10.579Z,8.07
2018-04-29T22:19:38.919Z,9.63
2018-04-29T22:22:08.113Z,9.50
2018-04-29T22:24:37.242Z,10.73
2018-04-29T22:27:06.820Z,9.90
2018-04-29T22:32:10.622Z,10.60
2018-04-29T22:34:39.477Z,10.40
2018-04-29T22:37:08.693Z,10.67
2018-04-29T22:39:38.098Z,10.93
2018-04-29T22:42:06.451Z,9.37
2018-04-29T22:44:34.803Z,10.57
2018-04-29T22:47:03.179Z,9.57
2018-04-29T22:49:31.547Z,9.90
2018-04-29T22:51:59.885Z,8.17
2018-04-29T22:54:28.240Z,7.97
2018-04-29T22:56:56.978Z,7.13
2018-04-29T22:59:26.058Z,7.00
2018-04-29T23:01:55.155Z,8.27
2018-04-29T23:04:25.387Z,9.97
2018-04-29T23:06:54.508Z,7.20
2018-04-29T23:09:22.860Z,10.47
2018-04-29T23:11:51.949Z,6.83
2018-04-29T23:14:21.040Z,8.27
2018-04-29T23:16:50.185Z,9.57
2018-04-29T23:19:18.519Z,10.87
2018-04-29T23:21:47.615Z,7.53
2018-04-29T23:24:16.725Z,7.27
2018-04-29T23:26:45.071Z,8.50
2018-04-29T23:29:13.410Z,8.67
2018-04-29T23:31:41.769Z,9.60
2018-04-29T23:34:10.115Z,10.77
2018-04-29T23:36:39.219Z,7.77
2018-04-29T23:39:07.571Z,11.33
2018-04-29T23:44:11.348Z,12.37
2018-04-29T23:46:40.454Z,8.87
2018-04-29T23:49:08.816Z,7.63
2018-04-29T23:51:37.136Z,9.57
2018-04-29T23:54:05.512Z,8.27
2018-04-29T23:56:33.887Z,7.73
2018-04-29T23:59:02.239Z,9.83
